Time;durP1;ratioP1;P1;durP2;ratioP2;P2;SDS_P1;SDS_P2;PMS_P1;PMS_P2;Temp;Humidity;BMP_temperature;BMP_pressure;BME280_temperature;BME280_humidity;BME280_pressure;Samples;Min_cycle;Max_cycle;Signal;HPM_P1;HPM_P2
2023/03/02 00:00:57;;;;;;;22.13;16.80;;;;;;;-1.84;100.00;97206.09;5018636;28;20214;-68
2023/03/02 00:03:25;;;;;;;18.70;15.67;;;;;;;-1.93;100.00;97201.56;5048883;28;20579;-70
2023/03/02 00:05:54;;;;;;;20.33;16.77;;;;;;;-1.95;100.00;97190.44;5052385;28;20332;-68
2023/03/02 00:08:22;;;;;;;20.70;17.20;;;;;;;-1.92;100.00;97195.41;5069705;28;20296;-70
2023/03/02 00:10:49;;;;;;;20.00;14.87;;;;;;;-1.89;100.00;97200.41;5070285;28;20383;-67
2023/03/02 00:13:17;;;;;;;20.67;15.70;;;;;;;-1.99;100.00;97189.00;5039127;28;20620;-68
2023/03/02 00:15:46;;;;;;;19.80;14.83;;;;;;;-1.94;100.00;97195.50;5015569;28;22440;-70
2023/03/02 00:18:14;;;;;;;21.47;16.13;;;;;;;-1.97;100.00;97185.34;5062595;28;20242;-68
2023/03/02 00:20:42;;;;;;;17.93;16.17;;;;;;;-1.95;100.00;97180.06;5037234;28;20232;-69
2023/03/02 00:23:10;;;;;;;19.27;15.73;;;;;;;-2.01;100.00;97177.88;5068384;28;20202;-69
2023/03/02 00:25:37;;;;;;;20.27;15.20;;;;;;;-2.08;100.00;97173.13;5067430;28;20512;-69
2023/03/02 00:28:05;;;;;;;19.87;15.80;;;;;;;-1.97;100.00;97187.94;5055382;28;20277;-69
2023/03/02 00:30:33;;;;;;;18.83;15.50;;;;;;;-1.99;100.00;97186.41;5065327;28;20322;-68
2023/03/02 00:33:02;;;;;;;21.67;16.17;;;;;;;-1.97;100.00;97174.13;5021409;28;20210;-71
2023/03/02 00:35:30;;;;;;;21.57;16.97;;;;;;;-1.91;100.00;97174.53;5047454;28;20569;-71
2023/03/02 00:37:57;;;;;;;21.27;15.97;;;;;;;-1.93;100.00;97176.41;5049585;28;20210;-68
2023/03/02 00:40:25;;;;;;;18.70;15.00;;;;;;;-1.88;100.00;97178.69;5067852;28;20242;-66
2023/03/02 00:42:53;;;;;;;20.20;15.93;;;;;;;-1.90;100.00;97181.38;5051628;28;20287;-69
2023/03/02 00:45:20;;;;;;;17.57;15.50;;;;;;;-1.94;100.00;97173.91;5069909;28;20682;-66
2023/03/02 00:47:48;;;;;;;18.17;15.37;;;;;;;-1.96;100.00;97175.78;5026360;28;20301;-69
2023/03/02 00:50:17;;;;;;;22.00;15.37;;;;;;;-1.94;100.00;97168.72;5047435;28;20362;-67
2023/03/02 00:52:45;;;;;;;24.97;16.37;;;;;;;-1.99;100.00;97170.81;5052204;28;20574;-70
2023/03/02 00:55:13;;;;;;;18.37;15.50;;;;;;;-2.02;100.00;97169.25;5071687;28;20305;-67
2023/03/02 00:57:40;;;;;;;20.63;14.57;;;;;;;-2.09;100.00;97171.41;5068460;28;20478;-69
2023/03/02 01:00:09;;;;;;;19.23;15.10;;;;;;;-2.08;100.00;97167.91;5048183;28;20206;-67
2023/03/02 01:02:42;;;;;;;20.23;16.83;;;;;;;-2.03;100.00;97154.59;5015433;28;20776;-68
2023/03/02 01:05:11;;;;;;;18.53;15.43;;;;;;;-2.06;100.00;97158.25;5046368;28;20253;-69
2023/03/02 01:07:40;;;;;;;19.60;14.80;;;;;;;-2.05;100.00;97153.88;5048711;28;20437;-71
2023/03/02 01:10:10;;;;;;;21.03;15.90;;;;;;;-2.06;100.00;97140.09;5071942;28;20218;-69
2023/03/02 01:12:37;;;;;;;19.80;15.07;;;;;;;-2.03;100.00;97154.59;5068729;28;20776;-68
2023/03/02 01:15:06;;;;;;;18.30;14.73;;;;;;;-2.09;100.00;97137.66;5046617;28;20244;-70
2023/03/02 01:17:34;;;;;;;18.53;15.20;;;;;;;-2.16;100.00;97138.22;5068054;28;20506;-70
2023/03/02 01:20:03;;;;;;;21.13;15.60;;;;;;;-2.11;100.00;97131.75;5026613;28;20220;-69
2023/03/02 01:22:30;;;;;;;19.53;14.33;;;;;;;-2.13;100.00;97138.00;5042445;28;20618;-69
2023/03/02 01:25:00;;;;;;;20.97;16.03;;;;;;;-2.11;100.00;97121.38;5049247;28;20248;-69
2023/03/02 01:27:27;;;;;;;20.83;16.57;;;;;;;-2.09;100.00;97116.09;5062842;28;20718;-69
2023/03/02 01:29:55;;;;;;;20.20;14.47;;;;;;;-2.12;100.00;97111.09;5050283;28;20209;-67
2023/03/02 01:32:23;;;;;;;16.83;15.07;;;;;;;-2.13;100.00;97106.84;5061510;28;20326;-67
2023/03/02 01:34:50;;;;;;;17.40;15.10;;;;;;;-2.13;100.00;97112.03;5022056;28;20222;-68
2023/03/02 01:37:19;;;;;;;19.60;14.50;;;;;;;-2.10;100.00;97107.44;5041524;28;20201;-67
2023/03/02 01:39:47;;;;;;;21.07;15.73;;;;;;;-2.08;100.00;97112.56;5051410;28;20834;-68
2023/03/02 01:42:16;;;;;;;17.87;15.10;;;;;;;-2.12;100.00;97098.94;5068976;28;20191;-67
2023/03/02 01:44:46;;;;;;;19.90;15.50;;;;;;;-2.09;100.00;97109.09;5045447;28;20990;-69
2023/03/02 01:47:17;;;;;;;20.53;14.60;;;;;;;-2.09;100.00;97110.88;5068884;28;20217;-67
2023/03/02 01:49:49;;;;;;;18.93;16.13;;;;;;;-2.17;100.00;97101.03;5020160;28;20798;-68
2023/03/02 01:52:17;;;;;;;18.97;15.43;;;;;;;-2.26;100.00;97109.47;5043268;28;20203;-67
2023/03/02 01:54:48;;;;;;;18.60;15.10;;;;;;;-2.26;100.00;97104.25;5068308;28;20315;-68
2023/03/02 01:57:21;;;;;;;19.17;15.50;;;;;;;-2.34;100.00;97108.22;5053024;28;20204;-67
2023/03/02 01:59:53;;;;;;;19.17;15.67;;;;;;;-2.27;100.00;97106.06;5047439;28;20203;-70
2023/03/02 02:02:20;;;;;;;20.20;15.67;;;;;;;-2.23;100.00;97099.72;5069264;28;20281;-67
2023/03/02 02:04:49;;;;;;;18.97;14.27;;;;;;;-2.23;100.00;97099.72;5023730;28;20245;-68
2023/03/02 02:07:16;;;;;;;18.73;16.43;;;;;;;-2.20;100.00;97098.66;5056313;28;20289;-67
2023/03/02 02:09:46;;;;;;;18.37;15.77;;;;;;;-2.14;100.00;97098.22;5062034;28;20263;-68
2023/03/02 02:12:14;;;;;;;21.07;16.13;;;;;;;-2.10;100.00;97096.25;5054235;28;20217;-67
2023/03/02 02:14:44;;;;;;;22.40;17.40;;;;;;;-2.11;100.00;97095.41;5051547;28;20351;-68
2023/03/02 02:17:12;;;;;;;18.60;16.27;;;;;;;-2.16;100.00;97094.91;5070393;28;20203;-70
2023/03/02 02:19:49;;;;;;;20.50;16.53;;;;;;;-2.14;100.00;97094.81;5071277;28;20295;-71
2023/03/02 02:22:22;;;;;;;20.20;15.53;;;;;;;-2.10;100.00;97097.06;5021489;28;20217;-69
2023/03/02 02:24:52;;;;;;;18.43;15.27;;;;;;;-2.06;100.00;97098.53;5054765;28;20228;-71
2023/03/02 02:27:28;;;;;;;20.77;15.87;;;;;;;-2.11;100.00;97095.41;5047662;28;20212;-70
2023/03/02 02:29:57;;;;;;;19.57;15.50;;;;;;;-2.17;100.00;97098.44;5075786;28;20226;-70
2023/03/02 02:32:27;;;;;;;20.27;14.47;;;;;;;-2.11;100.00;97100.59;5049181;28;20227;-70
2023/03/02 02:34:58;;;;;;;18.77;16.57;;;;;;;-2.14;100.00;97094.81;5072794;28;20503;-72
2023/03/02 02:37:29;;;;;;;20.57;15.90;;;;;;;-2.17;100.00;97082.84;5019899;28;20297;-67
2023/03/02 02:39:57;;;;;;;19.73;16.13;;;;;;;-2.18;100.00;97086.38;5054969;28;20202;-68
2023/03/02 02:42:29;;;;;;;18.73;14.70;;;;;;;-2.20;100.00;97089.09;5050299;28;20418;-67
2023/03/02 02:45:00;;;;;;;19.40;14.73;;;;;;;-2.30;100.00;97080.28;5074570;28;20218;-70
2023/03/02 02:47:28;;;;;;;20.73;16.30;;;;;;;-2.31;100.00;97088.19;5037578;28;20436;-67
2023/03/02 02:49:57;;;;;;;21.47;16.47;;;;;;;-2.26;100.00;97086.94;5072679;28;20561;-67
2023/03/02 02:52:26;;;;;;;20.17;15.73;;;;;;;-2.29;100.00;97081.94;5022630;28;20225;-67
2023/03/02 02:54:56;;;;;;;19.23;15.90;;;;;;;-2.29;100.00;97081.94;5046871;28;20233;-68
2023/03/02 02:57:28;;;;;;;20.00;15.80;;;;;;;-2.35;100.00;97087.56;5044877;28;20213;-67
2023/03/02 02:59:58;;;;;;;18.33;15.63;;;;;;;-2.38;100.00;97091.19;5072298;28;20198;-66
2023/03/02 03:02:27;;;;;;;18.83;15.13;;;;;;;-2.43;100.00;97080.31;5046084;28;20569;-68
2023/03/02 03:05:01;;;;;;;20.17;16.37;;;;;;;-2.36;100.00;97085.91;5069010;28;20569;-70
2023/03/02 03:07:30;;;;;;;20.13;15.77;;;;;;;-2.34;100.00;97084.88;5019384;28;20213;-70
2023/03/02 03:10:01;;;;;;;19.93;15.90;;;;;;;-2.31;100.00;97083.00;5049186;28;20831;-68
2023/03/02 03:12:32;;;;;;;21.60;17.10;;;;;;;-2.31;100.00;97073.44;5054948;28;20767;-70
2023/03/02 03:15:00;;;;;;;23.93;17.03;;;;;;;-2.27;100.00;97082.69;5039013;28;20999;-68
2023/03/02 03:17:27;;;;;;;19.90;16.27;;;;;;;-2.31;100.00;97078.63;5051882;28;20234;-68
2023/03/02 03:20:05;;;;;;;20.80;16.07;;;;;;;-2.28;100.00;97085.38;5067903;28;20425;-69
2023/03/02 03:22:34;;;;;;;20.33;16.53;;;;;;;-2.38;100.00;97072.19;5060728;28;20225;-67
2023/03/02 03:25:02;;;;;;;21.50;17.23;;;;;;;-2.34;100.00;97074.47;5048830;28;20434;-68
2023/03/02 03:27:32;;;;;;;20.97;16.17;;;;;;;-2.36;100.00;97078.94;5032500;28;20216;-67
2023/03/02 03:30:00;;;;;;;23.20;16.43;;;;;;;-2.43;100.00;97072.53;5073281;28;20467;-69
2023/03/02 03:32:28;;;;;;;21.80;16.67;;;;;;;-2.38;100.00;97074.78;5048840;28;20220;-68
2023/03/02 03:34:56;;;;;;;18.90;15.50;;;;;;;-2.43;100.00;97079.47;5052539;28;20501;-70
2023/03/02 03:37:24;;;;;;;20.23;16.30;;;;;;;-2.47;100.00;97076.25;5066589;28;20199;-70
2023/03/02 03:39:51;;;;;;;20.70;16.67;;;;;;;-2.44;100.00;97077.81;5022398;28;20206;-70
2023/03/02 03:42:19;;;;;;;19.57;16.53;;;;;;;-2.51;100.00;97082.56;5050303;28;20214;-70
2023/03/02 03:44:48;;;;;;;19.67;16.50;;;;;;;-2.48;100.00;97087.56;5069768;28;20300;-67
2023/03/02 03:47:16;;;;;;;20.73;16.60;;;;;;;-2.50;100.00;97089.44;5048968;28;20284;-69
2023/03/02 03:49:44;;;;;;;20.23;16.67;;;;;;;-2.52;100.00;97081.75;5048228;28;20337;-68
2023/03/02 03:52:11;;;;;;;21.37;17.33;;;;;;;-2.52;100.00;97081.75;5069463;28;20285;-69
2023/03/02 03:54:39;;;;;;;18.90;15.53;;;;;;;-2.52;100.00;97080.91;5021712;28;20226;-67
2023/03/02 03:57:07;;;;;;;22.67;17.33;;;;;;;-2.43;100.00;97088.09;5072087;28;20885;-69
2023/03/02 03:59:34;;;;;;;20.40;16.57;;;;;;;-2.50;100.00;97079.91;5047350;28;20214;-67
2023/03/02 04:02:03;;;;;;;18.80;15.23;;;;;;;-2.51;100.00;97082.56;5045877;28;20279;-69
2023/03/02 04:04:33;;;;;;;22.83;16.10;;;;;;;-2.43;100.00;97074.28;5050539;28;20376;-69
2023/03/02 04:07:00;;;;;;;21.63;16.93;;;;;;;-2.37;100.00;97074.69;5064212;28;20352;-69
2023/03/02 04:09:31;;;;;;;22.00;17.50;;;;;;;-2.12;100.00;97077.34;5021238;28;20214;-69
2023/03/02 04:11:58;;;;;;;20.90;17.10;;;;;;;-2.05;100.00;97081.19;5058332;28;20752;-68
2023/03/02 04:14:26;;;;;;;20.13;17.27;;;;;;;-2.05;100.00;97079.44;5046320;28;20230;-69
2023/03/02 04:16:54;;;;;;;24.97;17.90;;;;;;;-1.92;100.00;97081.16;5068594;28;20776;-68
2023/03/02 04:19:23;;;;;;;20.83;17.37;;;;;;;-1.88;100.00;97080.00;5031610;28;20289;-70
2023/03/02 04:21:52;;;;;;;20.23;16.73;;;;;;;-1.90;100.00;97072.28;5063382;28;20211;-70
2023/03/02 04:24:21;;;;;;;20.90;16.70;;;;;;;-1.93;100.00;97075.09;5045667;28;20797;-68
2023/03/02 04:26:50;;;;;;;18.10;16.13;;;;;;;-2.02;100.00;97069.75;5018039;28;20383;-67
2023/03/02 04:29:18;;;;;;;22.00;18.40;;;;;;;-2.06;100.00;97074.31;5050622;28;20206;-66
2023/03/02 04:31:47;;;;;;;21.03;18.17;;;;;;;-1.97;100.00;97071.06;5066045;28;20211;-68
2023/03/02 04:34:15;;;;;;;19.93;17.10;;;;;;;-2.03;100.00;97063.72;5032505;28;20929;-68
2023/03/02 04:36:44;;;;;;;21.40;17.07;;;;;;;-1.99;100.00;97069.53;5064250;28;20214;-67
2023/03/02 04:39:13;;;;;;;19.50;16.30;;;;;;;-2.01;100.00;97077.44;5046789;28;20331;-68
2023/03/02 04:41:41;;;;;;;19.77;16.67;;;;;;;-2.04;100.00;97059.47;5026145;28;20218;-68
2023/03/02 04:44:09;;;;;;;22.17;17.03;;;;;;;-1.99;100.00;97082.53;5049367;28;20310;-69
2023/03/02 04:46:37;;;;;;;20.47;15.73;;;;;;;-1.93;100.00;97077.72;5070179;28;20624;-68
2023/03/02 04:49:05;;;;;;;22.40;16.13;;;;;;;-1.97;100.00;97080.66;5048476;28;20249;-69
2023/03/02 04:51:36;;;;;;;22.60;17.27;;;;;;;-2.00;100.00;97084.28;5040931;28;20209;-68
2023/03/02 04:54:07;;;;;;;17.80;15.30;;;;;;;-2.10;100.00;97081.50;5067596;28;20219;-69
2023/03/02 04:56:35;;;;;;;21.87;17.87;;;;;;;-2.15;100.00;97085.34;5022972;28;20214;-70
2023/03/02 04:59:02;;;;;;;20.93;16.53;;;;;;;-2.32;100.00;97071.78;5068687;28;20558;-69
2023/03/02 05:01:30;;;;;;;19.53;15.97;;;;;;;-2.45;100.00;97079.59;5044038;28;20305;-70
2023/03/02 05:03:58;;;;;;;20.87;16.43;;;;;;;-2.55;100.00;97081.97;5065475;28;20194;-70
2023/03/02 05:06:29;;;;;;;19.70;16.27;;;;;;;-2.45;100.00;97074.41;5051068;28;20806;-69
2023/03/02 05:08:58;;;;;;;26.57;16.70;;;;;;;-2.49;100.00;97084.16;5067900;28;20776;-69
2023/03/02 05:11:28;;;;;;;23.97;17.37;;;;;;;-2.54;100.00;97075.00;5074058;28;20194;-69
2023/03/02 05:13:58;;;;;;;24.37;17.90;;;;;;;-2.54;100.00;97075.00;5029026;28;20461;-69
2023/03/02 05:16:28;;;;;;;19.53;17.03;;;;;;;-2.63;100.00;97064.31;5043479;28;20582;-69
2023/03/02 05:18:56;;;;;;;22.23;16.93;;;;;;;-2.67;100.00;97068.06;5067453;28;20653;-69
2023/03/02 05:21:24;;;;;;;22.50;18.13;;;;;;;-2.68;100.00;97073.34;5043129;28;20285;-69
2023/03/02 05:23:52;;;;;;;21.27;16.40;;;;;;;-2.67;100.00;97075.84;5060016;28;20293;-70
2023/03/02 05:26:20;;;;;;;22.80;17.47;;;;;;;-2.73;100.00;97073.69;5066748;28;20654;-67
2023/03/02 05:28:49;;;;;;;23.03;17.63;;;;;;;-2.67;100.00;97080.19;5025421;28;20673;-68
2023/03/02 05:31:23;;;;;;;21.40;16.30;;;;;;;-2.59;100.00;97072.75;5048095;28;20697;-69
2023/03/02 05:33:50;;;;;;;22.97;17.20;;;;;;;-2.69;100.00;97069.94;5066573;28;20202;-70
2023/03/02 05:36:19;;;;;;;20.43;17.57;;;;;;;-2.74;100.00;97069.41;5073991;28;20663;-68
2023/03/02 05:38:49;;;;;;;21.73;17.33;;;;;;;-2.71;100.00;97073.56;5048860;28;20310;-69
2023/03/02 05:41:17;;;;;;;19.40;16.13;;;;;;;-2.71;100.00;97071.81;5071922;28;20285;-70
2023/03/02 05:43:45;;;;;;;20.97;16.73;;;;;;;-2.69;100.00;97080.31;5023133;28;20205;-69
2023/03/02 05:46:15;;;;;;;23.90;17.50;;;;;;;-2.69;100.00;97082.91;5042974;28;20220;-70
2023/03/02 05:48:43;;;;;;;21.83;16.37;;;;;;;-2.73;100.00;97078.00;5069512;28;20202;-68
2023/03/02 05:51:10;;;;;;;21.33;16.93;;;;;;;-2.69;100.00;97082.06;5069929;28;20206;-69
2023/03/02 05:53:38;;;;;;;20.47;16.57;;;;;;;-2.66;100.00;97089.63;5042206;28;20210;-69
2023/03/02 05:56:07;;;;;;;20.90;16.43;;;;;;;-2.64;100.00;97093.78;5064058;28;20241;-70
2023/03/02 05:58:35;;;;;;;23.33;16.77;;;;;;;-2.60;100.00;97088.41;5021337;28;20748;-69
2023/03/02 06:01:08;;;;;;;21.80;16.57;;;;;;;-2.55;100.00;97094.09;5047134;28;20411;-69
2023/03/02 06:03:36;;;;;;;25.63;17.53;;;;;;;-2.50;100.00;97105.84;5067606;28;20205;-70
2023/03/02 06:06:04;;;;;;;23.40;17.93;;;;;;;-2.47;100.00;97104.78;5070804;28;20253;-69
2023/03/02 06:08:32;;;;;;;21.63;16.73;;;;;;;-2.49;100.00;97097.13;5045874;28;20522;-69
2023/03/02 06:10:59;;;;;;;20.43;15.57;;;;;;;-2.43;100.00;97101.06;5066152;28;20217;-71
2023/03/02 06:13:27;;;;;;;22.17;17.33;;;;;;;-2.42;100.00;97096.69;5070422;28;20206;-70
2023/03/02 06:15:55;;;;;;;22.40;17.57;;;;;;;-2.34;100.00;97105.63;5001413;28;20321;-71
2023/03/02 06:18:23;;;;;;;26.03;18.10;;;;;;;-2.31;100.00;97096.78;5047187;28;20199;-71
2023/03/02 06:20:52;;;;;;;23.40;17.43;;;;;;;-2.22;100.00;97109.16;5066588;28;20430;-68
2023/03/02 06:23:20;;;;;;;22.03;16.97;;;;;;;-2.17;100.00;97111.41;5049091;28;20210;-68
2023/03/02 06:25:48;;;;;;;21.83;18.13;;;;;;;-2.19;100.00;97098.56;5064842;28;20225;-71
2023/03/02 06:28:17;;;;;;;24.20;17.47;;;;;;;-2.07;100.00;97107.25;5072966;28;20214;-69
2023/03/02 06:30:45;;;;;;;20.67;16.97;;;;;;;-2.00;100.00;97107.66;5018264;28;20291;-71
2023/03/02 06:33:12;;;;;;;21.90;18.10;;;;;;;-1.91;100.00;97111.38;5053850;28;20214;-68
2023/03/02 06:35:40;;;;;;;22.83;18.07;;;;;;;-1.89;100.00;97101.72;5066922;28;20226;-70
2023/03/02 06:38:09;;;;;;;21.17;17.80;;;;;;;-1.85;100.00;97108.34;5061592;28;20837;-71
2023/03/02 06:40:37;;;;;;;24.10;17.83;;;;;;;-1.80;100.00;97108.84;5045906;28;20241;-71
2023/03/02 06:43:04;;;;;;;21.23;17.17;;;;;;;-1.86;100.00;97104.09;5065185;28;20206;-70
2023/03/02 06:45:33;;;;;;;23.00;17.60;;;;;;;-1.80;100.00;97106.25;5021759;28;20225;-70
2023/03/02 06:48:01;;;;;;;23.83;18.43;;;;;;;-1.70;100.00;97106.44;5047258;28;20276;-68
2023/03/02 06:50:29;;;;;;;21.90;18.17;;;;;;;-1.65;100.00;97100.91;5065340;28;20301;-70
2023/03/02 06:52:56;;;;;;;21.83;17.83;;;;;;;-1.59;100.00;97103.06;5069172;28;20206;-71
2023/03/02 06:55:25;;;;;;;26.27;18.60;;;;;;;-1.54;100.00;97100.97;5051352;28;20221;-69
2023/03/02 06:57:53;;;;;;;22.37;17.67;;;;;;;-1.50;100.00;97104.19;5072772;28;20194;-68
2023/03/02 07:00:26;;;;;;;27.03;19.40;;;;;;;-1.47;100.00;97099.59;5022485;28;20210;-68
2023/03/02 07:02:55;;;;;;;24.73;18.13;;;;;;;-1.39;100.00;97106.00;5069464;28;20194;-68
2023/03/02 07:05:23;;;;;;;22.40;17.93;;;;;;;-1.30;100.00;97113.16;5052953;28;20572;-68
2023/03/02 07:07:51;;;;;;;25.37;20.43;;;;;;;-1.21;100.00;97099.47;5069407;28;20227;-70
2023/03/02 07:10:19;;;;;;;22.80;17.53;;;;;;;-1.11;100.00;97104.84;5072699;28;20198;-68
2023/03/02 07:12:48;;;;;;;22.30;19.83;;;;;;;-1.06;100.00;97099.28;5051915;28;20210;-70
2023/03/02 07:15:16;;;;;;;22.37;18.97;;;;;;;-1.00;100.00;97101.44;5048062;28;20226;-68
2023/03/02 07:17:44;;;;;;;24.30;18.23;;;;;;;-0.88;100.00;97097.94;5050430;28;20206;-70
2023/03/02 07:20:14;;;;;;;20.43;17.13;;;;;;;-0.72;100.00;97091.56;5047722;28;20207;-68
2023/03/02 07:22:42;;;;;;;22.20;17.97;;;;;;;-0.63;100.00;97090.88;5065669;28;20191;-69
2023/03/02 07:25:11;;;;;;;22.83;18.13;;;;;;;-0.59;100.00;97092.28;5071994;28;20215;-69
2023/03/02 07:27:39;;;;;;;22.63;17.93;;;;;;;-0.51;100.00;97093.50;5042474;28;20850;-67
2023/03/02 07:30:09;;;;;;;23.23;17.33;;;;;;;-0.44;100.00;97089.50;5068360;28;20198;-70
2023/03/02 07:32:37;;;;;;;21.93;18.40;;;;;;;-0.31;100.00;97084.19;5024806;28;20360;-69
2023/03/02 07:35:05;;;;;;;25.10;18.50;;;;;;;-0.21;100.00;97086.88;5052671;28;20783;-69
2023/03/02 07:37:33;;;;;;;26.70;18.50;;;;;;;-0.12;100.00;97091.41;5076056;28;20210;-70
2023/03/02 07:40:00;;;;;;;26.97;18.50;;;;;;;-0.01;100.00;97087.94;5085849;28;20725;-69
2023/03/02 07:42:28;;;;;;;22.90;19.00;;;;;;;0.08;100.00;97092.44;5051020;28;20229;-69
2023/03/02 07:44:56;;;;;;;24.07;17.67;;;;;;;0.14;100.00;97097.19;5073434;28;20463;-70
2023/03/02 07:47:27;;;;;;;25.33;19.73;;;;;;;0.28;100.00;97097.84;5029377;28;20198;-68
2023/03/02 07:49:55;;;;;;;26.13;18.73;;;;;;;0.36;100.00;97087.63;5070438;28;20285;-70
2023/03/02 07:52:22;;;;;;;24.67;17.67;;;;;;;0.46;100.00;97094.75;5048861;28;20210;-67
2023/03/02 07:54:50;;;;;;;22.93;17.93;;;;;;;0.51;100.00;97090.81;5072163;28;20210;-69
2023/03/02 07:57:18;;;;;;;22.30;18.13;;;;;;;0.67;100.00;97090.41;5058697;28;20190;-67
2023/03/02 07:59:46;;;;;;;22.70;18.47;;;;;;;0.78;100.00;97092.16;5063841;28;20206;-69
2023/03/02 08:02:16;;;;;;;24.00;18.17;;;;;;;0.85;100.00;97095.09;5063766;28;20772;-67
2023/03/02 08:04:44;;;;;;;22.00;17.33;;;;;;;1.00;100.00;97091.22;5027642;28;20335;-69
2023/03/02 08:07:12;;;;;;;23.20;17.90;;;;;;;1.11;100.00;97100.78;5046700;28;20218;-67
2023/03/02 08:09:40;;;;;;;22.60;18.17;;;;;;;1.35;100.00;97085.81;5069753;28;20370;-69
2023/03/02 08:12:07;;;;;;;22.20;17.43;;;;;;;1.56;99.44;97088.41;5073405;28;20876;-69
2023/03/02 08:14:35;;;;;;;24.80;18.57;;;;;;;1.56;97.16;97086.63;5047551;28;20218;-68
2023/03/02 08:17:04;;;;;;;22.63;17.57;;;;;;;1.69;95.89;97086.41;5068545;28;20632;-68
2023/03/02 08:19:32;;;;;;;20.37;16.83;;;;;;;1.85;94.95;97085.13;5014939;28;20403;-66
2023/03/02 08:22:02;;;;;;;20.50;16.93;;;;;;;1.99;93.49;97084.75;5053244;28;20198;-68
2023/03/02 08:24:29;;;;;;;19.30;16.87;;;;;;;2.06;92.55;97087.66;5065881;28;20226;-66
2023/03/02 08:27:00;;;;;;;21.27;17.60;;;;;;;2.15;91.76;97083.44;5073779;28;20511;-67
2023/03/02 08:29:27;;;;;;;22.93;17.03;;;;;;;2.33;90.60;97085.38;5044149;28;20799;-68
2023/03/02 08:31:55;;;;;;;21.97;17.33;;;;;;;2.45;89.34;97076.47;5069850;28;20198;-69
2023/03/02 08:34:22;;;;;;;21.03;16.30;;;;;;;2.55;88.45;97085.16;5073332;28;20224;-66
2023/03/02 08:36:50;;;;;;;22.83;17.57;;;;;;;2.54;87.68;97075.66;5022019;28;20203;-67
2023/03/02 08:39:20;;;;;;;20.33;17.03;;;;;;;2.80;87.10;97074.31;5046965;28;20320;-66
2023/03/02 08:41:49;;;;;;;19.33;16.73;;;;;;;2.99;85.90;97076.09;5063999;28;20607;-68
2023/03/02 08:44:17;;;;;;;19.47;16.43;;;;;;;3.46;85.26;97068.28;5056940;28;20240;-68
2023/03/02 08:46:45;;;;;;;18.43;15.57;;;;;;;4.24;82.15;97071.56;5064363;28;20495;-66
2023/03/02 08:49:12;;;;;;;25.23;17.07;;;;;;;4.76;79.66;97078.03;5068541;28;20230;-67
2023/03/02 08:51:40;;;;;;;19.77;16.57;;;;;;;5.12;77.63;97074.53;5015800;28;20375;-67
2023/03/02 08:54:08;;;;;;;21.97;16.30;;;;;;;4.98;75.91;97075.91;5049448;28;20229;-70
2023/03/02 08:56:38;;;;;;;21.20;17.03;;;;;;;4.48;76.54;97065.75;5068583;28;20232;-69
2023/03/02 08:59:07;;;;;;;20.80;17.60;;;;;;;4.13;76.72;97072.59;5066802;28;20205;-68
2023/03/02 09:01:36;;;;;;;21.40;17.43;;;;;;;3.98;77.94;97066.19;5044516;28;20479;-68
2023/03/02 09:04:06;;;;;;;20.60;18.23;;;;;;;4.19;77.60;97066.78;5067545;28;20222;-67
2023/03/02 09:06:35;;;;;;;20.83;16.37;;;;;;;4.14;77.60;97061.13;4995352;28;20547;-68
2023/03/02 09:09:03;;;;;;;24.33;16.23;;;;;;;4.04;77.39;97070.84;5067007;28;20561;-68
2023/03/02 09:11:32;;;;;;;22.77;17.67;;;;;;;3.98;77.39;97064.41;5046861;28;20370;-67
2023/03/02 09:14:01;;;;;;;18.40;16.50;;;;;;;4.12;77.53;97072.75;5048031;28;20222;-69
2023/03/02 09:16:29;;;;;;;19.60;17.23;;;;;;;4.20;77.13;97055.31;5045266;28;20415;-69
2023/03/02 09:18:57;;;;;;;25.87;17.90;;;;;;;3.96;77.69;97065.50;5066011;28;20218;-68
2023/03/02 09:21:25;;;;;;;18.70;16.07;;;;;;;3.99;77.03;97050.31;5019360;28;20218;-67
2023/03/02 09:23:54;;;;;;;20.33;16.73;;;;;;;4.20;76.92;97065.81;5069303;28;20692;-70
2023/03/02 09:26:22;;;;;;;21.33;17.57;;;;;;;4.53;76.35;97057.47;5046898;28;20680;-67
2023/03/02 09:28:49;;;;;;;21.77;16.97;;;;;;;4.45;75.75;97052.13;5048183;28;20214;-68
2023/03/02 09:31:18;;;;;;;19.90;16.67;;;;;;;4.46;75.86;97048.53;5061506;28;20202;-67
2023/03/02 09:33:46;;;;;;;17.77;15.87;;;;;;;4.71;75.61;97060.09;5048552;28;20218;-67
2023/03/02 09:36:19;;;;;;;20.90;16.50;;;;;;;4.86;75.42;97055.13;5068109;28;20232;-67
2023/03/02 09:38:47;;;;;;;19.73;16.33;;;;;;;4.94;74.17;97054.38;5021219;28;20202;-66
2023/03/02 09:41:38;;;;;;;19.27;17.17;;;;;;;5.01;74.27;97062.47;5047349;28;20206;-68
2023/03/02 09:44:16;;;;;;;19.87;16.50;;;;;;;5.19;73.62;97055.41;5046652;28;20754;-67
2023/03/02 09:46:48;;;;;;;20.87;16.13;;;;;;;5.13;72.99;97050.75;5066735;28;20206;-67
2023/03/02 09:49:21;;;;;;;20.00;16.47;;;;;;;5.16;72.88;97055.72;5047449;28;20225;-68
2023/03/02 09:51:59;;;;;;;20.93;16.00;;;;;;;5.33;72.62;97054.03;5064993;28;20667;-66
2023/03/02 09:54:27;;;;;;;20.37;16.47;;;;;;;5.44;72.87;97058.19;5027182;28;20267;-67
2023/03/02 09:56:56;;;;;;;20.60;16.80;;;;;;;5.55;71.60;97056.28;5047013;28;20296;-67
2023/03/02 09:59:26;;;;;;;19.23;17.10;;;;;;;5.61;71.49;97060.94;5069866;28;20202;-67
2023/03/02 10:02:00;;;;;;;20.57;16.50;;;;;;;5.61;71.18;97053.84;5042094;28;20650;-67
2023/03/02 10:04:30;;;;;;;18.60;15.90;;;;;;;5.77;71.06;97045.22;5048485;28;20456;-66
2023/03/02 10:07:01;;;;;;;21.17;16.47;;;;;;;5.97;70.62;97050.25;5064993;28;20226;-67
2023/03/02 10:09:29;;;;;;;21.47;16.40;;;;;;;5.96;70.44;97053.03;5025425;28;20252;-68
2023/03/02 10:12:10;;;;;;;18.43;16.43;;;;;;;5.70;70.14;97049.47;5045564;28;20202;-67
2023/03/02 10:14:43;;;;;;;19.33;16.77;;;;;;;5.83;69.95;97049.03;5065677;28;20630;-67
2023/03/02 10:17:33;;;;;;;20.53;17.53;;;;;;;5.87;69.81;97036.38;5056105;28;20304;-69
2023/03/02 10:20:04;;;;;;;21.93;17.80;;;;;;;5.91;69.71;97048.25;5041561;28;20190;-67
2023/03/02 10:22:34;;;;;;;20.23;17.20;;;;;;;6.07;69.56;97032.56;5065931;28;20555;-70
2023/03/02 10:25:17;;;;;;;22.93;17.17;;;;;;;6.19;69.07;97037.53;5022146;28;20222;-68
2023/03/02 10:27:50;;;;;;;23.30;17.43;;;;;;;6.33;68.73;97026.41;5050110;28;20206;-67
2023/03/02 10:30:20;;;;;;;23.87;18.67;;;;;;;6.46;68.66;97030.38;5076331;28;20237;-68
2023/03/02 10:32:51;;;;;;;20.40;18.07;;;;;;;6.40;68.39;97037.09;5050648;28;20202;-67
2023/03/02 10:35:21;;;;;;;21.40;16.87;;;;;;;6.53;68.36;97036.63;5052940;28;20214;-69
2023/03/02 10:37:51;;;;;;;22.07;17.73;;;;;;;6.58;68.15;97026.44;5069277;28;20203;-67
2023/03/02 10:40:30;;;;;;;19.90;15.93;;;;;;;6.59;67.21;97032.53;5022830;28;20215;-69
2023/03/02 10:42:58;;;;;;;23.43;17.03;;;;;;;6.61;67.30;97035.81;5051961;28;20197;-67
2023/03/02 10:45:28;;;;;;;19.60;16.70;;;;;;;6.81;67.52;97026.63;5073309;28;20223;-68
2023/03/02 10:48:01;;;;;;;22.27;18.20;;;;;;;6.66;67.29;97030.91;5051344;28;20236;-67
2023/03/02 10:50:30;;;;;;;23.63;17.27;;;;;;;6.62;67.79;97030.38;5050028;28;20222;-68
2023/03/02 10:52:58;;;;;;;23.33;17.57;;;;;;;6.93;67.38;97027.13;5058203;28;20451;-68
2023/03/02 10:55:30;;;;;;;23.43;18.77;;;;;;;6.93;66.86;97032.38;5022609;28;20214;-68
2023/03/02 10:58:04;;;;;;;19.77;16.73;;;;;;;6.98;67.13;97031.06;5050104;28;20251;-67
2023/03/02 11:00:34;;;;;;;18.57;16.30;;;;;;;7.15;66.89;97016.91;5071576;28;20288;-68
2023/03/02 11:03:06;;;;;;;20.73;17.70;;;;;;;7.13;66.52;97025.97;5046047;28;20431;-69
2023/03/02 11:05:35;;;;;;;19.37;17.33;;;;;;;7.08;66.86;97019.38;5051798;28;20277;-69
2023/03/02 11:08:05;;;;;;;20.23;17.03;;;;;;;7.47;66.55;97019.66;5066270;28;20244;-67
2023/03/02 11:10:35;;;;;;;24.43;17.87;;;;;;;7.47;66.06;97020.50;5072372;28;20252;-69
2023/03/02 11:13:16;;;;;;;18.63;16.30;;;;;;;7.40;66.01;97016.88;5007435;28;20320;-68
2023/03/02 11:15:45;;;;;;;22.70;17.37;;;;;;;7.72;66.10;97012.50;5070444;28;20218;-67
2023/03/02 11:18:25;;;;;;;18.63;16.67;;;;;;;7.51;65.38;97010.41;5056011;28;20806;-67
2023/03/02 11:20:55;;;;;;;21.50;17.50;;;;;;;7.48;65.70;97014.22;5049773;28;20209;-67
2023/03/02 11:23:27;;;;;;;22.60;17.37;;;;;;;7.61;65.69;97002.31;5070169;28;20762;-68